• Join FlightAware (Why Join?)
  • Login
  • US Flag 
11:14AM EDT


 

Airport Tracker/Info


-or-


 

Live Flight TrackerFlight Track Log ✈ EJA831 ✈ 11-Jun-2013 ✈ KDET - KPKB

Flight Track Log - Related Links

Times and Time Zones

All times are in EDT time to prevent confusion due to time zone crossing. See the EJA831 flight status page for this flight to view local times or setup timezone preferences in your user account.

Time Position Orientation Groundspeed Altitude Reporting Facility
EDT Latitude Longitude Course Direction KTS MPH feet Rate Location/Type
01:52PM 42.4197 -83.0217 36° Northeast 157 181 1,600  Level Cleveland Center
01:54PM 42.4667 -82.9758 36° Northeast 278 320 3,000 780 Climbing Cleveland Center
01:55PM 42.4258 -82.9347 143° Southeast 330 380 3,300 1,320 Climbing Cleveland Center
01:56PM 42.3642 -82.8903 152° Southeast 284 327 5,300 3,120 Climbing Cleveland Center
01:58PM 42.2525 -82.7264 133° Southeast 284 327 12,800 3,060 Climbing Cleveland Center
01:59PM 42.1794 -82.6231 134° Southeast 329 379 14,500 1,080 Climbing Cleveland Center
02:00PM 42.1022 -82.5086 132° Southeast 374 430 15,000 1,440 Climbing Cleveland Center
02:01PM 42.0689 -82.3733 108° East 397 457 17,400 1,980 Climbing Cleveland Center
02:02PM 42.0483 -82.2244 100° East 384 442 19,000 780 Climbing Cleveland Center
02:03PM 42.0089 -82.0558 107° East 406 467 19,000  Level Cleveland Center
02:04PM 41.9100 -81.9586 144° Southeast 411 473 19,000  Level Cleveland Center
02:05PM 41.8131 -81.8647 144° Southeast 418 481 19,000  Level Cleveland Center
02:06PM 41.7222 -81.7794 145° Southeast 415 478 19,000  Level Cleveland Center
02:07PM 41.6356 -81.6972 145° Southeast 403 464 19,000  Level Cleveland Center
02:08PM 41.5508 -81.6153 144° Southeast 387 445 19,000  Level Cleveland Center
02:09PM 41.4642 -81.5364 146° Southeast 381 438 19,000  Level Cleveland Center
02:10PM 41.3833 -81.4578 144° Southeast 375 432 19,000  Level Cleveland Center
02:11PM 41.3047 -81.3847 145° Southeast 380 437 19,000  Level Cleveland Center
02:12PM 41.2175 -81.3092 147° Southeast 380 437 19,000  Level Cleveland Center
02:13PM 41.1114 -81.2997 176° South 356 410 19,000  Level Cleveland Center
02:14PM 41.0114 -81.3094 184° South 356 410 19,000  Level Cleveland Center
02:15PM 40.9111 -81.3194 184° South 361 415 19,000  Level Cleveland Center
02:16PM 40.8131 -81.3267 183° South 361 415 19,000  Level Cleveland Center
02:17PM 40.7131 -81.3336 183° South 361 415 19,000  Level Cleveland Center
02:18PM 40.6169 -81.3408 183° South 361 415 19,000  Level Cleveland Center
02:19PM 40.5189 -81.3478 183° South 361 415 19,000  Level Cleveland Center
02:20PM 40.4189 -81.3550 183° South 361 415 19,000  Level Cleveland Center
02:21PM 40.3306 -81.3636 184° South 357 411 19,000 -360 Level Indianapolis Center
02:22PM 40.2297 -81.3717 183° South 360 414 18,400 -1,320 Descending Indianapolis Center
02:23PM 40.1239 -81.3803 184° South 375 432 16,400 -2,040 Descending Indianapolis Center
02:24PM 40.0194 -81.3869 183° South 372 428 14,300 -2,220 Descending Indianapolis Center
02:25PM 39.9111 -81.3972 184° South 358 412 11,900 -2,280 Descending Indianapolis Center
02:26PM 39.8192 -81.4033 183° South 332 382 9,700 -2,220 Descending Indianapolis Center
02:27PM 39.7322 -81.4086 183° South 315 362 7,400 -2,220 Descending Indianapolis Center
02:28PM 39.6525 -81.4169 185° South 293 337 5,200 -1,680 Descending Indianapolis Center
02:29PM 39.5822 -81.4228 184° South 269 310 4,000 -1,080 Descending Indianapolis Center
02:30PM 39.5142 -81.4278 183° South 255 293 3,000 -600 Descending Indianapolis Center
02:31PM 39.4458 -81.4189 174° South 250 288 2,800 -600 Descending Indianapolis Center
02:32PM 39.3831 -81.4106 174° South 232 267 1,800 -1,020 Descending Indianapolis Center